Time;durP1;ratioP1;P1;durP2;ratioP2;P2;SDS_P1;SDS_P2;PMS_P1;PMS_P2;Temp;Humidity;BMP_temperature;BMP_pressure;BME280_temperature;BME280_humidity;BME280_pressure;Samples;Min_cycle;Max_cycle;Signal;HPM_P1;HPM_P2
2022/01/30 00:02:51;;;;;;;8.78;1.65;;;;;;;6.97;78.82;99276.17;2974119;80;21022;-69
2022/01/30 00:06:53;;;;;;;5.75;1.82;;;;;;;6.94;78.41;99272.00;2974804;79;21540;-68
2022/01/30 00:11:01;;;;;;;9.30;3.12;;;;;;;6.98;77.51;99248.30;2973716;80;21023;-68
2022/01/30 00:14:58;;;;;;;7.45;2.67;;;;;;;7.06;78.08;99253.42;2973223;79;21010;-68
2022/01/30 00:19:09;;;;;;;6.78;2.30;;;;;;;7.10;77.89;99232.39;2974967;79;20995;-69
2022/01/30 00:27:27;;;;;;;7.78;2.92;;;;;;;7.27;77.48;99263.55;2974404;80;21031;-69
2022/01/30 00:31:24;;;;;;;4.78;2.12;;;;;;;7.27;75.75;99287.34;2971801;79;21406;-69
2022/01/30 00:35:26;;;;;;;9.23;3.33;;;;;;;7.32;74.42;99275.53;2963890;80;21070;-68
2022/01/30 00:39:28;;;;;;;8.65;2.95;;;;;;;7.34;73.57;99274.41;2964672;79;21699;-70
2022/01/30 00:43:30;;;;;;;6.33;2.37;;;;;;;7.48;71.46;99275.91;2964383;79;20999;-71
2022/01/30 00:47:31;;;;;;;10.63;2.70;;;;;;;7.52;69.99;99242.06;2964579;80;21011;-69
2022/01/30 00:51:37;;;;;;;5.47;1.90;;;;;;;7.59;72.26;99276.31;2964653;80;21082;-68
2022/01/30 00:55:37;;;;;;;14.93;2.95;;;;;;;7.55;73.33;99322.05;2964277;79;20984;-69
2022/01/30 00:59:38;;;;;;;17.55;3.70;;;;;;;7.47;73.50;99321.88;2964430;80;21283;-68
2022/01/30 01:03:40;;;;;;;11.43;3.75;;;;;;;7.50;72.33;99303.55;2964565;79;21015;-69
2022/01/30 01:07:45;;;;;;;7.65;2.35;;;;;;;7.47;71.66;99300.70;2964955;80;21038;-68
2022/01/30 01:24:31;;;;;;;10.03;3.93;;;;;;;7.48;71.60;99275.91;2965170;80;21504;-68
2022/01/30 01:28:33;;;;;;;13.80;3.77;;;;;;;7.48;71.99;99244.16;2964790;80;21023;-68
2022/01/30 01:32:34;;;;;;;14.60;4.00;;;;;;;7.48;70.79;99266.66;2968540;80;21085;-69
2022/01/30 01:36:36;;;;;;;7.97;4.00;;;;;;;7.55;71.08;99237.36;2974090;79;21058;-68
2022/01/30 01:40:41;;;;;;;5.30;2.95;;;;;;;7.42;71.24;99239.37;2974499;80;21050;-69
2022/01/30 01:44:48;;;;;;;14.10;3.40;;;;;;;7.43;69.92;99180.19;2974341;79;21050;-68
2022/01/30 01:48:49;;;;;;;9.78;4.00;;;;;;;7.31;69.60;99231.53;2973706;79;21069;-68
2022/01/30 01:52:50;;;;;;;8.90;3.22;;;;;;;7.24;68.95;99224.09;2974418;79;21066;-68
2022/01/30 01:56:52;;;;;;;14.50;4.05;;;;;;;7.29;68.72;99252.34;2974247;80;21663;-68
2022/01/30 02:00:54;;;;;;;13.32;2.87;;;;;;;7.35;68.67;99244.84;2973883;80;21010;-67
2022/01/30 02:04:58;;;;;;;8.08;2.52;;;;;;;7.31;66.38;99231.03;2974085;80;21022;-68
2022/01/30 02:09:06;;;;;;;16.30;3.47;;;;;;;7.35;65.44;99178.70;2974187;79;20992;-68
2022/01/30 02:25:57;;;;;;;4.12;2.12;;;;;;;7.22;68.92;99181.07;2973741;79;21062;-67
2022/01/30 02:29:53;;;;;;;5.62;2.37;;;;;;;7.15;70.99;99240.76;2972045;79;21053;-70
2022/01/30 02:33:55;;;;;;;6.72;2.45;;;;;;;7.05;71.41;99230.59;2972774;80;21510;-66
2022/01/30 02:37:59;;;;;;;13.90;3.40;;;;;;;6.91;71.13;99258.19;2972818;79;21050;-68
2022/01/30 02:42:00;;;;;;;11.08;2.75;;;;;;;6.87;69.10;99221.91;2973359;79;21030;-68
2022/01/30 02:46:10;;;;;;;11.18;3.20;;;;;;;7.02;69.90;99247.56;2973058;80;21015;-67
2022/01/30 02:50:18;;;;;;;;;;;;;;;7.02;69.44;99193.36;2975614;79;21026;-66
2022/01/30 02:54:15;;;;;;;8.28;2.98;;;;;;;7.08;70.63;99221.10;2972996;79;20113;-71
2022/01/30 02:58:17;;;;;;;7.47;4.00;;;;;;;6.99;70.43;99203.70;2972191;80;21022;-69
2022/01/30 03:02:19;;;;;;;8.93;3.12;;;;;;;7.07;70.30;99210.14;2974766;80;21022;-68
2022/01/30 03:06:20;;;;;;;14.45;3.47;;;;;;;7.14;69.91;99182.22;2974478;79;21011;-68
2022/01/30 03:10:22;;;;;;;9.75;2.25;;;;;;;7.12;68.87;99201.36;2974685;80;21011;-69
2022/01/30 03:14:23;;;;;;;7.75;2.85;;;;;;;7.10;67.50;99196.18;2974550;80;21057;-68
2022/01/30 03:18:25;;;;;;;5.40;2.35;;;;;;;7.05;66.53;99209.44;2973475;79;21049;-68
2022/01/30 03:22:27;;;;;;;7.87;3.42;;;;;;;7.12;66.12;99221.19;2974334;79;21054;-68
2022/01/30 03:26:36;;;;;;;10.25;2.83;;;;;;;7.13;66.23;99177.41;2974475;79;21084;-68
2022/01/30 03:30:33;;;;;;;7.33;3.75;;;;;;;7.14;66.58;99197.59;2972284;79;20964;-68
2022/01/30 03:34:34;;;;;;;9.65;3.27;;;;;;;7.20;67.38;99206.00;2971306;78;21003;-68
2022/01/30 03:38:36;;;;;;;4.97;2.10;;;;;;;7.17;66.96;99195.19;2970915;79;21011;-69
2022/01/30 03:42:38;;;;;;;6.95;3.80;;;;;;;6.98;65.65;99177.41;2970584;79;20967;-68
2022/01/30 03:46:39;;;;;;;18.82;4.40;;;;;;;7.08;66.88;99171.67;2969677;80;21014;-69
2022/01/30 03:50:43;;;;;;;12.23;3.98;;;;;;;7.13;66.58;99176.58;2970751;79;21500;-68
2022/01/30 03:54:45;;;;;;;8.35;3.10;;;;;;;7.14;66.41;99145.20;2970547;80;21070;-69
2022/01/30 03:58:47;;;;;;;6.42;1.77;;;;;;;7.21;67.20;99154.27;2970590;79;21010;-70
2022/01/30 04:02:49;;;;;;;4.72;2.30;;;;;;;7.17;67.84;99170.06;2969839;79;21328;-68
2022/01/30 04:06:51;;;;;;;6.55;2.77;;;;;;;7.17;68.46;99160.80;2970732;80;21066;-67
2022/01/30 04:10:54;;;;;;;4.95;2.90;;;;;;;7.08;67.57;99135.98;2970556;80;21035;-67
2022/01/30 04:14:56;;;;;;;8.88;2.85;;;;;;;7.11;66.72;99148.93;2969862;79;21053;-68
2022/01/30 04:18:58;;;;;;;7.65;2.62;;;;;;;7.15;66.79;99166.20;2970387;79;21023;-69
2022/01/30 04:23:00;;;;;;;5.97;2.90;;;;;;;7.03;66.73;99126.76;2970318;80;21254;-68
2022/01/30 04:27:02;;;;;;;7.15;2.65;;;;;;;7.11;66.83;99167.45;2970989;79;21007;-70
2022/01/30 04:31:05;;;;;;;9.18;3.05;;;;;;;6.95;66.52;99163.10;2970277;80;23400;-69
2022/01/30 04:35:19;;;;;;;12.15;3.40;;;;;;;6.90;67.09;99162.20;2966487;79;21038;-69
2022/01/30 05:00:49;;;;;;;5.35;2.27;;;;;;;6.79;66.69;99123.45;2965183;79;21054;-68
2022/01/30 05:08:51;;;;;;;8.05;2.10;;;;;;;6.88;67.93;99132.41;2964784;79;20991;-68
2022/01/30 05:12:56;;;;;;;6.62;2.12;;;;;;;6.93;68.32;99160.61;2965044;79;20999;-68
2022/01/30 05:16:57;;;;;;;10.90;3.75;;;;;;;6.94;68.82;99160.95;2964787;80;21054;-69
2022/01/30 05:20:59;;;;;;;7.12;2.10;;;;;;;6.87;68.80;99138.63;2965183;80;21058;-69
2022/01/30 05:25:02;;;;;;;13.32;2.30;;;;;;;6.65;69.71;99134.34;2965228;80;20979;-70
2022/01/30 05:29:04;;;;;;;9.95;4.12;;;;;;;6.53;69.10;99119.04;2964699;79;21522;-69
2022/01/30 05:33:06;;;;;;;8.03;3.60;;;;;;;6.67;69.80;99120.02;2965034;80;21003;-69
2022/01/30 05:37:11;;;;;;;13.48;3.62;;;;;;;6.64;68.81;99079.81;2965201;80;20999;-68
2022/01/30 05:41:14;;;;;;;10.18;3.62;;;;;;;6.67;68.88;99090.12;2965007;80;21042;-69
2022/01/30 05:45:28;;;;;;;7.33;2.22;;;;;;;6.55;68.29;99086.22;2964754;79;21109;-70
2022/01/30 05:49:24;;;;;;;7.37;2.55;;;;;;;6.68;68.09;99079.44;2963624;79;21051;-68
2022/01/30 05:53:26;;;;;;;6.60;2.17;;;;;;;6.58;69.30;99127.41;2965297;80;21006;-71
2022/01/30 05:57:28;;;;;;;4.75;2.72;;;;;;;6.55;70.81;99077.47;2965860;80;20991;-71
2022/01/30 06:01:30;;;;;;;5.22;2.45;;;;;;;6.47;71.60;99065.38;2964935;79;21022;-68
2022/01/30 06:05:32;;;;;;;4.55;2.27;;;;;;;6.45;72.55;99106.94;2965402;79;20960;-67
2022/01/30 06:09:34;;;;;;;8.45;3.98;;;;;;;6.48;72.89;99090.83;2964857;79;21026;-68
2022/01/30 06:13:35;;;;;;;11.55;2.83;;;;;;;6.43;72.80;99065.64;2965053;80;21309;-70
2022/01/30 06:17:37;;;;;;;4.12;2.27;;;;;;;6.45;71.76;99054.10;2965497;79;20987;-68
2022/01/30 06:21:39;;;;;;;8.85;2.90;;;;;;;6.43;72.37;99093.87;2965206;80;21005;-72
2022/01/30 06:25:40;;;;;;;9.55;3.37;;;;;;;6.08;73.34;99084.44;2965465;79;21034;-67
2022/01/30 06:29:42;;;;;;;10.72;2.15;;;;;;;6.11;76.08;99048.06;2964693;79;21050;-69
2022/01/30 06:33:44;;;;;;;5.67;3.65;;;;;;;5.71;79.95;99109.37;2964513;79;21556;-69
2022/01/30 06:37:46;;;;;;;12.07;3.60;;;;;;;5.46;81.49;99063.83;2964702;79;21030;-68
2022/01/30 06:41:48;;;;;;;11.73;2.85;;;;;;;5.07;86.16;99072.16;2964257;79;21018;-68
2022/01/30 06:45:49;;;;;;;5.75;2.17;;;;;;;4.85;87.97;99129.64;2963981;79;21408;-71
2022/01/30 06:49:51;;;;;;;8.38;2.27;;;;;;;4.79;88.99;99140.16;2964206;79;21015;-70
2022/01/30 06:53:53;;;;;;;3.65;2.52;;;;;;;4.82;90.37;99157.55;2963891;80;21007;-68
2022/01/30 06:57:54;;;;;;;13.03;2.70;;;;;;;4.91;88.19;99111.20;2963624;79;21610;-69
2022/01/30 07:01:56;;;;;;;17.57;3.47;;;;;;;5.10;87.20;99113.23;2964268;79;21002;-70
2022/01/30 07:05:57;;;;;;;10.70;4.05;;;;;;;5.11;86.61;99099.09;2964358;80;21031;-71
2022/01/30 07:10:00;;;;;;;7.70;2.17;;;;;;;5.17;84.38;99122.36;2964311;79;21026;-70
2022/01/30 07:14:02;;;;;;;7.05;2.98;;;;;;;5.28;81.81;99138.16;2964129;79;20968;-71
2022/01/30 07:18:03;;;;;;;6.65;2.33;;;;;;;5.49;80.65;99144.03;2964378;80;21030;-70
2022/01/30 07:22:06;;;;;;;4.95;2.83;;;;;;;5.65;78.96;99135.75;2964339;80;21018;-69
2022/01/30 07:26:07;;;;;;;12.88;3.15;;;;;;;5.61;77.92;99150.62;2964065;80;21303;-69
2022/01/30 07:30:11;;;;;;;10.05;3.08;;;;;;;5.74;78.72;99134.65;2964712;80;21074;-70
2022/01/30 07:34:12;;;;;;;7.03;2.60;;;;;;;5.87;77.32;99164.38;2968298;80;21034;-71
2022/01/30 07:38:17;;;;;;;3.98;2.35;;;;;;;5.84;78.25;99141.70;2974222;79;20971;-69
2022/01/30 07:42:19;;;;;;;10.82;3.90;;;;;;;5.87;78.65;99164.38;2973856;79;20994;-69
2022/01/30 07:46:20;;;;;;;6.90;3.33;;;;;;;5.80;78.01;99139.45;2974650;79;20955;-70
2022/01/30 07:50:22;;;;;;;3.17;2.12;;;;;;;5.80;78.64;99120.48;2973736;79;21014;-70
2022/01/30 07:54:24;;;;;;;14.80;3.62;;;;;;;5.86;78.31;99143.73;2974032;79;21003;-69
2022/01/30 07:58:25;;;;;;;8.50;3.30;;;;;;;5.81;75.82;99134.53;2974611;79;21003;-69
2022/01/30 08:02:27;;;;;;;6.33;3.33;;;;;;;5.96;76.57;99092.35;2974034;78;20967;-71
2022/01/30 08:06:29;;;;;;;9.25;2.95;;;;;;;5.90;76.26;99082.30;2973742;80;21002;-72
2022/01/30 08:10:30;;;;;;;8.70;3.08;;;;;;;5.91;75.76;99152.61;2973148;79;21034;-73
2022/01/30 08:14:32;;;;;;;8.98;3.42;;;;;;;5.94;75.32;99125.14;2971782;79;21394;-70
2022/01/30 08:18:37;;;;;;;6.37;3.08;;;;;;;5.94;75.85;99149.72;2969383;80;20963;-68
2022/01/30 08:22:49;;;;;;;9.43;4.05;;;;;;;5.92;77.04;99138.45;2972384;79;20995;-68
2022/01/30 08:26:52;;;;;;;13.90;3.72;;;;;;;5.99;76.72;99133.52;2972310;79;20995;-71
2022/01/30 08:30:54;;;;;;;10.53;2.80;;;;;;;6.18;75.17;99147.88;2972728;80;21094;-71
2022/01/30 08:34:56;;;;;;;9.48;2.98;;;;;;;6.14;74.74;99163.98;2932076;80;21062;-69
2022/01/30 08:38:57;;;;;;;6.37;2.80;;;;;;;6.23;74.71;99124.57;2909524;81;21046;-69
2022/01/30 08:42:59;;;;;;;18.10;4.12;;;;;;;6.35;74.47;99115.64;2910147;80;21034;-69
2022/01/30 08:47:00;;;;;;;7.03;2.67;;;;;;;6.43;73.68;99148.85;2910439;81;21054;-69
2022/01/30 08:51:02;;;;;;;9.33;4.15;;;;;;;6.57;73.44;99200.54;2910020;81;21018;-69
2022/01/30 08:55:07;;;;;;;13.30;4.12;;;;;;;6.46;73.30;99187.40;2910360;81;21043;-69
2022/01/30 08:59:08;;;;;;;11.00;3.45;;;;;;;6.54;72.84;99223.76;2910161;81;21038;-69
2022/01/30 09:03:11;;;;;;;9.75;3.15;;;;;;;6.59;72.18;99201.75;2910629;81;20998;-69
2022/01/30 09:07:13;;;;;;;12.23;4.08;;;;;;;6.51;72.18;99222.19;2909871;81;21062;-69
2022/01/30 09:11:15;;;;;;;11.20;5.42;;;;;;;6.55;72.13;99256.64;2942441;78;21046;-69
2022/01/30 09:15:18;;;;;;;19.90;5.10;;;;;;;6.54;72.24;99215.33;2962349;80;20963;-69
2022/01/30 09:19:22;;;;;;;13.05;3.37;;;;;;;6.46;70.76;99205.89;2961253;80;21007;-70
2022/01/30 09:23:24;;;;;;;9.38;3.65;;;;;;;6.47;71.44;99231.81;2962209;79;21022;-69
2022/01/30 09:27:28;;;;;;;10.48;3.95;;;;;;;6.52;70.68;99236.26;2962271;79;20979;-70
2022/01/30 09:31:31;;;;;;;10.85;3.92;;;;;;;6.61;70.18;99263.73;2963064;80;21003;-70
2022/01/30 09:35:34;;;;;;;19.40;4.80;;;;;;;6.72;69.35;99250.45;2967660;80;21030;-69
2022/01/30 09:39:37;;;;;;;10.88;4.12;;;;;;;6.75;68.67;99218.98;2963525;79;21073;-70
2022/01/30 09:43:38;;;;;;;12.25;4.30;;;;;;;6.80;68.03;99276.27;2918952;80;20995;-72
2022/01/30 09:47:41;;;;;;;12.63;5.10;;;;;;;6.79;67.65;99233.61;2919466;81;21018;-71
2022/01/30 09:51:43;;;;;;;11.08;3.85;;;;;;;6.88;67.97;99306.89;2918895;80;20967;-70
2022/01/30 09:55:45;;;;;;;10.08;4.03;;;;;;;6.83;67.50;99262.79;2919104;81;21054;-72
2022/01/30 09:59:48;;;;;;;8.58;4.78;;;;;;;6.83;67.57;99293.19;2919902;80;21033;-69
2022/01/30 10:03:49;;;;;;;13.72;4.10;;;;;;;6.85;66.17;99234.42;2918710;80;21037;-69
2022/01/30 10:07:54;;;;;;;10.60;4.65;;;;;;;6.91;67.13;99293.41;2918775;81;21535;-70
2022/01/30 10:12:12;;;;;;;7.65;3.98;;;;;;;6.94;66.25;99327.99;2946119;78;21501;-71
2022/01/30 10:16:06;;;;;;;13.68;3.72;;;;;;;7.00;65.62;99311.14;2956342;80;21057;-72
2022/01/30 10:20:20;;;;;;;20.15;4.22;;;;;;;7.24;66.10;99304.77;2957280;80;21022;-68
2022/01/30 10:24:28;;;;;;;9.90;3.60;;;;;;;7.31;65.66;99304.28;2957379;79;21486;-70
2022/01/30 10:28:32;;;;;;;10.85;4.55;;;;;;;7.22;65.00;99385.24;2957157;80;21112;-69
2022/01/30 10:32:35;;;;;;;11.40;4.20;;;;;;;7.35;66.96;99356.78;2957966;80;21070;-70
2022/01/30 10:36:42;;;;;;;15.35;3.98;;;;;;;7.25;65.25;99366.47;2965172;79;21034;-70
2022/01/30 10:40:57;;;;;;;22.52;3.62;;;;;;;7.04;66.93;99330.72;2945944;78;21606;-70
2022/01/30 10:45:04;;;;;;;12.70;4.47;;;;;;;6.97;67.55;99390.73;2914988;80;21046;-69
2022/01/30 10:49:12;;;;;;;13.98;4.95;;;;;;;6.99;68.50;99369.46;2915739;81;21050;-71
2022/01/30 10:53:27;;;;;;;10.23;4.87;;;;;;;7.02;67.96;99398.30;2916343;81;20995;-71
2022/01/30 10:57:31;;;;;;;14.28;4.60;;;;;;;6.98;68.76;99422.81;2916416;81;20995;-69
2022/01/30 11:01:37;;;;;;;22.22;4.05;;;;;;;6.93;70.52;99377.41;2902211;81;21091;-68
2022/01/30 11:05:59;;;;;;;13.58;5.78;;;;;;;6.88;69.50;99379.59;2916357;81;20979;-70
2022/01/30 11:10:15;;;;;;;19.45;4.50;;;;;;;6.76;69.92;99367.36;2947483;80;21502;-69
2022/01/30 11:14:18;;;;;;;6.08;2.85;;;;;;;6.71;67.72;99405.58;2968514;79;21480;-70
2022/01/30 11:18:19;;;;;;;14.10;5.90;;;;;;;6.81;67.98;99350.16;2968434;78;21018;-70
2022/01/30 11:22:23;;;;;;;26.82;4.65;;;;;;;6.89;68.54;99434.14;2968490;79;20972;-69
2022/01/30 11:26:25;;;;;;;14.47;5.15;;;;;;;6.78;66.72;99417.82;2967220;79;21089;-70
2022/01/30 11:30:27;;;;;;;10.40;3.83;;;;;;;6.89;68.67;99434.14;2967591;79;21038;-69
2022/01/30 11:34:30;;;;;;;13.83;5.08;;;;;;;6.78;66.96;99388.75;2969145;79;21023;-68
2022/01/30 11:38:31;;;;;;;17.30;5.30;;;;;;;6.82;66.83;99461.55;2972913;80;21072;-69
2022/01/30 11:42:44;;;;;;;7.62;4.60;;;;;;;6.82;67.57;99448.80;2926801;79;21010;-69
2022/01/30 11:46:58;;;;;;;17.35;6.40;;;;;;;6.87;67.45;99458.52;2918931;80;20982;-69
2022/01/30 11:51:04;;;;;;;15.55;4.78;;;;;;;6.84;66.61;99397.96;2919234;81;21351;-71
2022/01/30 11:55:06;;;;;;;25.97;5.78;;;;;;;6.83;66.87;99397.60;2919934;80;20979;-69
2022/01/30 11:59:08;;;;;;;17.00;5.95;;;;;;;6.98;66.33;99481.48;2904491;81;21066;-68
2022/01/30 12:03:26;;;;;;;14.03;4.17;;;;;;;7.02;67.64;99454.29;2918635;80;20975;-69
2022/01/30 12:07:46;;;;;;;12.28;3.67;;;;;;;6.93;66.67;99471.27;2917873;80;21050;-68
2022/01/30 12:11:54;;;;;;;16.05;4.72;;;;;;;6.86;66.00;99488.56;2989138;78;21053;-70
2022/01/30 12:15:55;;;;;;;18.87;5.35;;;;;;;6.84;67.08;99454.80;3021429;78;21010;-71
2022/01/30 12:20:05;;;;;;;29.55;4.97;;;;;;;6.85;67.33;99497.45;3021840;78;20978;-70
2022/01/30 12:24:34;;;;;;;13.80;5.42;;;;;;;6.81;66.82;99493.38;3022540;78;21504;-72
2022/01/30 12:28:54;;;;;;;22.35;5.35;;;;;;;6.81;67.09;99498.66;3019900;78;21030;-69
2022/01/30 12:32:55;;;;;;;17.62;4.92;;;;;;;6.73;67.28;99507.69;3021762;78;21020;-71
2022/01/30 12:36:57;;;;;;;15.90;4.92;;;;;;;6.80;67.63;99483.30;2957164;80;21065;-70
2022/01/30 12:40:59;;;;;;;19.07;6.22;;;;;;;6.79;67.28;99503.23;2971526;79;20967;-70
2022/01/30 12:45:02;;;;;;;13.35;6.47;;;;;;;6.74;67.19;99519.45;2971643;80;21015;-70
2022/01/30 12:49:20;;;;;;;16.45;4.72;;;;;;;6.77;67.28;99527.13;2970982;80;21019;-67
2022/01/30 12:53:23;;;;;;;13.32;4.35;;;;;;;6.68;67.76;99549.01;2970791;80;21026;-67
2022/01/30 12:57:27;;;;;;;13.88;5.83;;;;;;;6.75;67.99;99537.48;2970643;80;21002;-68
2022/01/30 13:01:28;;;;;;;8.93;3.87;;;;;;;6.78;68.94;99557.06;2971681;79;21015;-69
2022/01/30 13:05:33;;;;;;;13.68;6.10;;;;;;;6.77;69.21;99583.14;2970913;78;21022;-69
2022/01/30 13:09:34;;;;;;;12.30;4.83;;;;;;;6.75;68.51;99567.88;2972275;80;20975;-68
2022/01/30 13:13:55;;;;;;;22.48;6.97;;;;;;;6.71;69.32;99581.34;2972105;79;20986;-68
2022/01/30 13:17:59;;;;;;;14.75;6.47;;;;;;;6.69;68.04;99599.13;2971671;79;21011;-69
2022/01/30 13:22:07;;;;;;;15.20;5.47;;;;;;;6.78;69.40;99602.00;2972620;80;21002;-68
2022/01/30 13:26:10;;;;;;;15.45;5.22;;;;;;;6.73;68.18;99602.84;2971566;79;21007;-67
2022/01/30 13:30:24;;;;;;;29.32;6.33;;;;;;;6.68;69.08;99608.02;2971523;80;21007;-69
2022/01/30 13:34:31;;;;;;;16.90;6.15;;;;;;;6.73;69.33;99618.20;2973388;77;21350;-68
2022/01/30 13:38:44;;;;;;;19.80;6.83;;;;;;;6.83;69.21;99632.88;3022571;78;21033;-70
2022/01/30 13:42:53;;;;;;;13.05;6.50;;;;;;;6.81;68.26;99607.05;2975757;78;21038;-70
2022/01/30 13:46:58;;;;;;;19.87;6.65;;;;;;;6.77;68.95;99662.44;2971228;79;21007;-69
2022/01/30 13:51:05;;;;;;;22.22;6.95;;;;;;;6.81;68.15;99677.11;2971255;79;20991;-70
2022/01/30 13:55:07;;;;;;;32.00;7.45;;;;;;;6.79;67.90;99661.84;2971423;79;21051;-72
2022/01/30 13:59:09;;;;;;;25.90;5.70;;;;;;;6.73;68.65;99662.31;2971345;80;20967;-70
2022/01/30 14:03:11;;;;;;;10.30;3.70;;;;;;;6.78;67.87;99649.13;2970740;79;21003;-70
2022/01/30 14:07:21;;;;;;;15.85;6.90;;;;;;;6.75;66.26;99673.12;2953548;80;20979;-70
2022/01/30 14:11:30;;;;;;;19.40;7.83;;;;;;;6.88;66.30;99677.02;2970571;78;21011;-71
2022/01/30 14:15:35;;;;;;;15.35;5.97;;;;;;;6.97;65.45;99705.39;2971148;79;21344;-70
2022/01/30 14:19:56;;;;;;;15.10;6.33;;;;;;;6.93;66.05;99680.15;2966561;79;21058;-72
2022/01/30 14:23:39;;;;;;;40.52;20.30;;;;;;;6.89;65.33;99698.53;2952890;80;21552;-72
2022/01/30 14:27:40;;;;;;;20.62;6.35;;;;;;;6.89;66.41;99685.31;2957047;80;21023;-71
2022/01/30 14:31:55;;;;;;;25.30;9.98;;;;;;;6.76;67.14;99690.66;2958411;80;20991;-71
2022/01/30 14:35:59;;;;;;;21.12;7.28;;;;;;;6.82;64.36;99723.73;2958230;80;21058;-70
2022/01/30 14:40:04;;;;;;;20.40;6.90;;;;;;;6.85;65.73;99724.34;2965726;80;21022;-72
2022/01/30 14:44:07;;;;;;;18.57;7.83;;;;;;;6.78;66.38;99736.82;2967962;80;21046;-71
2022/01/30 14:48:08;;;;;;;22.27;7.03;;;;;;;6.82;66.90;99736.95;2967768;80;20975;-73
2022/01/30 14:52:10;;;;;;;14.93;7.50;;;;;;;6.76;66.90;99754.59;2968282;80;21018;-72
2022/01/30 14:56:12;;;;;;;21.80;6.97;;;;;;;6.69;66.75;99761.67;2968364;80;21049;-71
2022/01/30 15:00:17;;;;;;;23.83;9.00;;;;;;;6.64;66.23;99761.14;2968451;80;20978;-70
2022/01/30 15:04:18;;;;;;;22.17;7.62;;;;;;;6.57;66.98;99775.78;2968236;79;21542;-70
2022/01/30 15:08:20;;;;;;;29.80;8.78;;;;;;;6.62;66.60;99770.99;2967588;79;21006;-71
2022/01/30 15:12:21;;;;;;;18.87;6.05;;;;;;;6.54;66.86;99766.77;2968176;80;22198;-71
2022/01/30 15:16:39;;;;;;;26.05;9.43;;;;;;;6.51;67.38;99763.03;2968388;79;21018;-70
2022/01/30 15:20:27;;;;;;;26.75;9.35;;;;;;;6.53;67.68;99808.19;2965406;79;21035;-71
2022/01/30 15:24:28;;;;;;;24.90;8.10;;;;;;;6.63;66.88;99803.07;2968588;79;20963;-72
2022/01/30 15:28:31;;;;;;;32.88;9.60;;;;;;;6.55;66.94;99797.52;2967802;79;21065;-72
2022/01/30 15:32:35;;;;;;;22.42;6.60;;;;;;;6.48;66.71;99755.30;2967782;79;20995;-71
2022/01/30 15:36:37;;;;;;;15.43;6.42;;;;;;;6.39;68.34;99825.05;2968101;79;21027;-70
2022/01/30 15:40:38;;;;;;;25.52;7.15;;;;;;;6.36;68.62;99812.52;2971285;80;20955;-71
2022/01/30 15:53:05;;;;;;;17.15;7.65;;;;;;;6.27;68.87;99836.47;2958966;80;21007;-73
2022/01/30 15:57:07;;;;;;;17.07;6.37;;;;;;;6.24;68.12;99867.07;2972306;79;21026;-72
2022/01/30 16:01:08;;;;;;;14.90;6.25;;;;;;;6.18;68.94;99847.70;2972225;79;21073;-69
2022/01/30 16:05:12;;;;;;;18.05;6.45;;;;;;;6.22;69.18;99847.84;2972725;79;21011;-70
2022/01/30 16:09:17;;;;;;;15.65;7.33;;;;;;;6.19;69.00;99863.45;2972175;79;21050;-72
2022/01/30 16:17:32;;;;;;;27.58;9.50;;;;;;;6.02;68.83;99871.71;2972082;80;21030;-72
2022/01/30 16:21:35;;;;;;;32.50;8.85;;;;;;;5.93;69.42;99863.43;2972337;79;20983;-71
2022/01/30 16:25:39;;;;;;;19.60;8.05;;;;;;;5.94;68.87;99878.81;2971832;80;21046;-72
2022/01/30 16:29:40;;;;;;;33.33;10.45;;;;;;;5.94;67.94;99853.73;2971861;79;21050;-70
2022/01/30 16:33:44;;;;;;;21.17;8.28;;;;;;;5.79;69.20;99888.14;2971813;79;21011;-72
2022/01/30 16:37:45;;;;;;;17.23;7.42;;;;;;;5.82;69.42;99897.66;2971422;79;21055;-73
2022/01/30 16:41:48;;;;;;;20.60;8.23;;;;;;;5.66;69.74;99867.48;2962456;80;21587;-72
2022/01/30 16:45:53;;;;;;;21.73;7.65;;;;;;;5.67;69.95;99899.06;2962501;79;21002;-73
2022/01/30 16:49:55;;;;;;;27.95;10.50;;;;;;;5.63;69.62;99899.36;2962966;80;21039;-70
2022/01/30 16:53:57;;;;;;;23.75;9.73;;;;;;;5.76;69.44;99877.80;2961717;79;20971;-70
2022/01/30 16:57:59;;;;;;;24.05;7.95;;;;;;;5.90;68.94;99901.92;2961973;79;21066;-73
2022/01/30 17:02:00;;;;;;;33.35;9.75;;;;;;;5.81;69.21;99923.20;2962346;79;21093;-73
2022/01/30 17:06:03;;;;;;;19.70;8.13;;;;;;;5.72;70.32;99939.17;2962948;79;21042;-73
2022/01/30 17:10:09;;;;;;;37.85;9.28;;;;;;;5.53;70.03;99915.83;2962080;79;21034;-73
2022/01/30 17:14:09;;;;;;;19.67;7.12;;;;;;;5.46;70.54;99896.06;2961844;80;21023;-71
2022/01/30 17:18:14;;;;;;;21.00;6.83;;;;;;;5.36;70.78;99881.81;2961995;79;21077;-73
2022/01/30 17:22:16;;;;;;;28.38;9.35;;;;;;;5.39;69.98;99943.09;2961826;80;20988;-71
2022/01/30 17:26:20;;;;;;;27.32;9.05;;;;;;;5.37;70.99;99924.38;2962184;80;21007;-70
2022/01/30 17:30:21;;;;;;;42.78;10.82;;;;;;;5.33;70.83;99954.55;2962301;79;21070;-71
2022/01/30 17:34:23;;;;;;;30.08;10.72;;;;;;;5.32;70.63;99948.41;2962595;79;20991;-70
2022/01/30 17:38:25;;;;;;;25.52;8.83;;;;;;;5.36;69.99;99930.61;2963400;79;21014;-71
2022/01/30 17:42:27;;;;;;;35.48;9.50;;;;;;;5.40;70.19;99927.67;2971967;80;21069;-73
2022/01/30 17:46:29;;;;;;;18.75;6.17;;;;;;;5.56;69.44;99948.60;2971781;79;21039;-70
2022/01/30 17:50:31;;;;;;;19.90;8.40;;;;;;;5.60;69.36;99948.39;2971812;79;21329;-71
2022/01/30 17:54:33;;;;;;;15.75;6.12;;;;;;;5.61;69.05;99997.58;2971783;80;21054;-70
2022/01/30 17:58:34;;;;;;;30.77;8.98;;;;;;;5.65;70.21;99999.06;2972301;79;21010;-72
2022/01/30 18:02:39;;;;;;;30.20;8.40;;;;;;;5.55;69.82;100012.02;2972604;80;21003;-71
2022/01/30 18:06:41;;;;;;;27.75;6.95;;;;;;;5.43;69.24;99982.86;2972089;79;21511;-72
2022/01/30 18:10:44;;;;;;;27.40;15.03;;;;;;;5.48;69.63;99998.38;2972592;79;20987;-71
2022/01/30 18:14:46;;;;;;;25.10;9.90;;;;;;;5.46;68.97;100021.38;2971892;79;21022;-71
2022/01/30 18:18:47;;;;;;;20.40;8.23;;;;;;;5.38;69.34;100011.80;2972274;80;20987;-72
2022/01/30 18:22:49;;;;;;;31.05;9.58;;;;;;;5.18;70.28;100023.61;2971874;80;20977;-72
2022/01/30 18:26:51;;;;;;;30.25;8.90;;;;;;;5.07;70.39;100022.98;2971398;79;21046;-70
2022/01/30 18:30:52;;;;;;;21.02;8.30;;;;;;;4.96;70.49;99999.92;2972050;80;21642;-71
2022/01/30 18:34:56;;;;;;;22.02;7.92;;;;;;;5.03;69.48;99978.84;2972390;79;21049;-72
2022/01/30 18:39:06;;;;;;;18.55;7.17;;;;;;;5.02;69.73;100007.93;2971204;78;22031;-72
2022/01/30 18:43:02;;;;;;;25.25;10.98;;;;;;;5.08;69.71;99993.03;2966996;79;20999;-71
2022/01/30 18:47:07;;;;;;;22.90;8.60;;;;;;;5.07;69.39;99980.80;2967918;79;21022;-71
2022/01/30 18:51:10;;;;;;;23.00;8.53;;;;;;;5.11;69.77;99999.42;2968339;79;20995;-73
2022/01/30 18:55:12;;;;;;;18.00;7.28;;;;;;;5.14;68.95;100000.08;2967939;79;21006;-71
2022/01/30 18:59:15;;;;;;;28.30;9.03;;;;;;;5.09;69.80;100011.40;2967243;80;21066;-70
2022/01/30 19:03:17;;;;;;;23.22;8.13;;;;;;;5.11;69.24;99983.59;2967704;79;20979;-74
2022/01/30 19:07:19;;;;;;;20.70;8.23;;;;;;;5.14;68.62;99965.80;2967983;78;20979;-70
2022/01/30 19:11:21;;;;;;;26.37;7.42;;;;;;;5.24;68.60;100003.47;2967627;79;21081;-71
2022/01/30 19:15:23;;;;;;;11.50;6.28;;;;;;;5.12;69.36;100015.64;2967679;79;21046;-72
2022/01/30 19:19:26;;;;;;;22.20;8.38;;;;;;;5.13;69.06;99980.42;2967306;79;21053;-70
2022/01/30 19:23:27;;;;;;;22.52;8.63;;;;;;;5.03;68.33;100009.16;2968073;79;21033;-70
2022/01/30 19:27:29;;;;;;;24.15;8.48;;;;;;;5.04;68.83;99996.36;2968115;80;21030;-70
2022/01/30 19:31:30;;;;;;;13.58;5.70;;;;;;;4.98;67.99;99994.09;2967181;80;21050;-71
2022/01/30 19:35:34;;;;;;;18.42;5.15;;;;;;;5.00;69.26;99994.37;2967759;79;21022;-73
2022/01/30 19:39:35;;;;;;;25.27;8.63;;;;;;;4.98;68.54;100000.22;2967673;79;21042;-71
2022/01/30 19:43:37;;;;;;;20.05;7.40;;;;;;;4.95;68.04;99972.73;2967115;79;21011;-62
2022/01/30 19:47:47;;;;;;;36.93;8.48;;;;;;;4.98;68.20;99996.27;2953365;80;21038;-64
2022/01/30 19:51:45;;;;;;;25.08;8.15;;;;;;;4.92;67.75;99992.70;2937119;78;21061;-71
2022/01/30 19:55:47;;;;;;;19.42;6.35;;;;;;;4.99;68.48;100001.05;2967401;80;21081;-67
2022/01/30 19:59:48;;;;;;;14.78;6.08;;;;;;;4.97;67.95;100028.84;2967427;80;22414;-71
2022/01/30 20:03:51;;;;;;;18.05;6.62;;;;;;;4.94;68.66;100022.91;2963259;79;21037;-71
2022/01/30 20:07:53;;;;;;;15.95;6.37;;;;;;;4.88;68.02;100013.59;2963650;79;21010;-72
2022/01/30 20:11:54;;;;;;;14.38;6.42;;;;;;;4.83;68.58;100026.21;2963957;80;21018;-74
2022/01/30 20:15:57;;;;;;;31.00;7.53;;;;;;;4.69;68.22;100025.27;2964879;79;20967;-72
2022/01/30 20:19:59;;;;;;;17.73;7.50;;;;;;;4.70;68.58;100024.81;2965094;79;21410;-66